»·PEaware :: N323CB KVGT-KSNA

N323CB :: KVGT-KSNA

FLIGHT INFORMATION

Flight Status: Arrived
Operator: Privately registered:
United States
More flights under this callsign
Pilot: Chris B. (7910)
Aircraft: BEECH AIRCRAFT DEBONAIR BONANZA
(BE33)
More flights by this aircraft type
Origin: KVGT North Las Vegas
United States
Destination: KSNA John Wayne-Orange Co
United States
More flights between these airports :: More routes between these airports
Route: RTTRN3 LAS V538 GFS V210 HEC V442 PDZ V21 SLI
File this flight plan on PilotEdge
Remarks:
Altitude:
(Current/Filed)
10,000ft
Speed:
(Current/Filed)
160kts
Departed: 08-Aug-17 06:25 PM
Arrived: 08-Aug-17 08:02 PM
Distance/Time
Traveled:
202nm/1:37
Distance/Time
To Go:
Arrived

Flight Plot

Page will automatically refresh every two minutes.

Flight plan parsing failed; only flown route is shown


Map Options




Map Legend


Flown Route
Filed Route
Departure Airport
Arrival Airport
Navaid (VOR, NDB)
Fix

Horizontal Profiles

Position Reports

Time Latitude Longitude Heading Altitude Ground
Speed
08-Aug-17 18:07 36.208236 -115.197782 177 2208ft 0kts
08-Aug-17 18:08 36.208236 -115.197782 177 2208ft 0kts
08-Aug-17 18:09 36.208236 -115.197782 177 2208ft 0kts
08-Aug-17 18:10 36.208236 -115.197782 177 2208ft 0kts
08-Aug-17 18:11 36.208236 -115.197782 177 2208ft 0kts
08-Aug-17 18:12 36.208236 -115.197782 177 2208ft 0kts
08-Aug-17 18:13 36.208236 -115.197782 177 2208ft 0kts
08-Aug-17 18:14 36.208236 -115.197782 177 2208ft 0kts
08-Aug-17 18:15 36.208236 -115.197782 177 2208ft 0kts
08-Aug-17 18:16 36.208236 -115.197782 177 2208ft 0kts
08-Aug-17 18:17 36.208236 -115.197782 177 2208ft 0kts
08-Aug-17 18:18 36.208236 -115.197782 177 2208ft 0kts
08-Aug-17 18:19 36.208268 -115.196416 345 2208ft 3kts
08-Aug-17 18:20 36.209507 -115.197972 314 2208ft 11kts
08-Aug-17 18:21 36.211498 -115.199819 315 2209ft 12kts
08-Aug-17 18:22 36.212640 -115.202845 265 2209ft 9kts
08-Aug-17 18:23 36.213743 -115.203365 0 2209ft 0kts
08-Aug-17 18:24 36.213743 -115.203365 1 2209ft 0kts
08-Aug-17 18:25 36.213743 -115.203365 1 2209ft 0kts
08-Aug-17 18:26 36.213743 -115.203365 1 2209ft 0kts
08-Aug-17 18:27 36.213959 -115.201765 134 2208ft 23kts
08-Aug-17 18:28 36.198604 -115.186452 183 2888ft 79kts
08-Aug-17 18:29 36.193248 -115.213727 265 3888ft 92kts
08-Aug-17 18:30 36.195673 -115.247899 275 4765ft 101kts
08-Aug-17 18:31 36.213099 -115.274555 328 5670ft 105kts
08-Aug-17 18:32 36.238843 -115.288090 15 6531ft 100kts
08-Aug-17 18:33 36.245070 -115.265188 144 7280ft 78kts
08-Aug-17 18:34 36.225577 -115.254228 160 7900ft 90kts
08-Aug-17 18:35 36.200771 -115.237476 153 8400ft 110kts
08-Aug-17 18:36 36.172722 -115.219067 154 8907ft 117kts
08-Aug-17 18:37 36.143363 -115.200293 155 9401ft 119kts
08-Aug-17 18:38 36.113827 -115.181569 155 9891ft 119kts
08-Aug-17 18:39 36.082750 -115.161951 158 10076ft 137kts
08-Aug-17 18:40 36.043216 -115.160849 180 10077ft 147kts
08-Aug-17 18:41 36.001934 -115.161374 180 10098ft 147kts
08-Aug-17 18:42 35.961448 -115.162065 181 10098ft 144kts
08-Aug-17 18:43 35.921538 -115.162763 181 10098ft 143kts
08-Aug-17 18:44 35.881919 -115.163456 181 10101ft 143kts
08-Aug-17 18:45 35.842151 -115.164152 181 10101ft 143kts
08-Aug-17 18:46 35.802231 -115.164856 181 10101ft 143kts
08-Aug-17 18:47 35.770582 -115.190086 225 10106ft 146kts
08-Aug-17 18:48 35.742993 -115.227004 224 10100ft 146kts
08-Aug-17 18:49 35.715246 -115.263872 225 10102ft 147kts
08-Aug-17 18:50 35.687352 -115.301002 225 10101ft 148kts
08-Aug-17 18:51 35.661233 -115.335699 225 10100ft 148kts
08-Aug-17 18:52 35.633150 -115.372935 225 10100ft 148kts
08-Aug-17 18:53 35.605001 -115.410217 225 10100ft 148kts
08-Aug-17 18:54 35.577397 -115.446737 225 10100ft 148kts
08-Aug-17 18:55 35.549443 -115.483680 225 10100ft 148kts
08-Aug-17 18:56 35.521283 -115.520854 225 10100ft 148kts
08-Aug-17 18:57 35.493091 -115.558029 225 10100ft 148kts
08-Aug-17 18:58 35.464972 -115.595067 225 10100ft 148kts
08-Aug-17 18:59 35.436771 -115.632172 225 10100ft 148kts
08-Aug-17 19:00 35.408733 -115.669017 224 10100ft 148kts
08-Aug-17 19:01 35.380564 -115.706002 224 10100ft 148kts
08-Aug-17 19:02 35.352297 -115.743073 224 10100ft 148kts
08-Aug-17 19:03 35.324255 -115.779974 223 10117ft 148kts
08-Aug-17 19:04 35.295824 -115.817062 223 10109ft 150kts
08-Aug-17 19:05 35.267233 -115.854209 224 10109ft 150kts
08-Aug-17 19:06 35.239658 -115.890255 225 10109ft 148kts
08-Aug-17 19:07 35.211528 -115.926875 226 10108ft 147kts
08-Aug-17 19:08 35.183686 -115.963299 226 10109ft 146kts
08-Aug-17 19:09 35.155854 -115.999563 225 10109ft 146kts
08-Aug-17 19:10 35.127953 -116.035839 225 10108ft 146kts
08-Aug-17 19:11 35.100076 -116.072047 225 10108ft 146kts
08-Aug-17 19:12 35.072281 -116.108107 225 10108ft 146kts
08-Aug-17 19:13 35.044366 -116.144284 225 10108ft 146kts
08-Aug-17 19:14 35.016482 -116.180386 225 10108ft 146kts
08-Aug-17 19:15 34.993206 -116.210486 225 10108ft 146kts
08-Aug-17 19:16 34.965363 -116.246457 225 10108ft 146kts
08-Aug-17 19:17 34.932351 -116.289168 225 10064ft 151kts
08-Aug-17 19:18 34.903520 -116.326366 224 10063ft 151kts
08-Aug-17 19:19 34.879344 -116.357394 224 10064ft 152kts
08-Aug-17 19:20 34.850326 -116.394680 224 10064ft 152kts
08-Aug-17 19:21 34.821196 -116.432104 224 10064ft 152kts
08-Aug-17 19:22 34.794294 -116.471469 244 10075ft 153kts
08-Aug-17 19:23 34.776988 -116.519228 244 10064ft 154kts
08-Aug-17 19:24 34.759838 -116.566945 244 10064ft 154kts
08-Aug-17 19:25 34.742674 -116.614762 244 10064ft 154kts
08-Aug-17 19:26 34.725297 -116.662866 244 10063ft 156kts
08-Aug-17 19:27 34.707628 -116.711600 245 10063ft 158kts
08-Aug-17 19:28 34.689754 -116.760948 245 10063ft 160kts
08-Aug-17 19:29 34.672026 -116.810471 245 10063ft 160kts
08-Aug-17 19:30 34.654001 -116.860149 245 10063ft 160kts
08-Aug-17 19:31 34.636060 -116.909565 245 10063ft 160kts
08-Aug-17 19:32 34.618048 -116.959118 245 10063ft 160kts
08-Aug-17 19:33 34.599460 -117.010068 245 9944ft 164kts
08-Aug-17 19:34 34.581215 -117.060224 245 9964ft 160kts
08-Aug-17 19:35 34.563516 -117.108785 245 10065ft 158kts
08-Aug-17 19:36 34.541013 -117.153176 206 10103ft 154kts
08-Aug-17 19:37 34.502424 -117.177627 204 10064ft 157kts
08-Aug-17 19:38 34.463217 -117.201496 204 10064ft 158kts
08-Aug-17 19:39 34.424006 -117.225308 204 10064ft 158kts
08-Aug-17 19:40 34.384670 -117.249171 204 10064ft 158kts
08-Aug-17 19:41 34.345587 -117.273055 203 10061ft 157kts
08-Aug-17 19:42 34.306194 -117.296686 203 9990ft 156kts
08-Aug-17 19:43 34.267826 -117.319865 203 9905ft 157kts
08-Aug-17 19:44 34.226703 -117.344598 204 9435ft 170kts
08-Aug-17 19:45 34.183020 -117.370865 205 8749ft 179kts
08-Aug-17 19:46 34.138530 -117.397758 205 8046ft 177kts
08-Aug-17 19:47 34.097425 -117.421370 203 7935ft 148kts
08-Aug-17 19:48 34.057378 -117.445100 207 7138ft 171kts
08-Aug-17 19:49 34.014622 -117.472070 207 6373ft 175kts
08-Aug-17 19:50 33.971604 -117.498044 207 5611ft 172kts
08-Aug-17 19:51 33.930366 -117.525366 209 4845ft 168kts
08-Aug-17 19:52 33.908039 -117.561775 289 4524ft 149kts
08-Aug-17 19:53 33.917004 -117.609931 257 4099ft 149kts
08-Aug-17 19:54 33.905147 -117.655504 249 3968ft 142kts
08-Aug-17 19:55 33.900517 -117.699774 269 4088ft 132kts
08-Aug-17 19:56 33.884184 -117.734994 212 3739ft 133kts
08-Aug-17 19:57 33.853886 -117.754748 209 3387ft 117kts
08-Aug-17 19:58 33.824724 -117.773774 205 3449ft 123kts
08-Aug-17 19:59 33.796003 -117.792145 209 2759ft 104kts
08-Aug-17 20:00 33.774554 -117.806283 209 1996ft 86kts
08-Aug-17 20:01 33.754074 -117.819143 208 1509ft 86kts
08-Aug-17 20:02 33.732984 -117.832377 207 1189ft 85kts
08-Aug-17 20:03 33.711875 -117.845744 207 779ft 86kts
08-Aug-17 20:04 33.691947 -117.858477 208 339ft 69kts
08-Aug-17 20:05 33.676898 -117.868087 207 59ft 40kts
08-Aug-17 20:06 33.674388 -117.868499 149 59ft 0kts
08-Aug-17 20:07 33.673354 -117.866991 210 59ft 9kts
08-Aug-17 20:08 33.669871 -117.869789 214 60ft 14kts
08-Aug-17 20:09 33.667853 -117.871435 129 59ft 0kts

Navigation Log

Ident Type
Flight plan parsing failed, navigation log unavailable